Time;durP1;ratioP1;P1;durP2;ratioP2;P2;SDS_P1;SDS_P2;PMS_P1;PMS_P2;Temp;Humidity;BMP_temperature;BMP_pressure;BME280_temperature;BME280_humidity;BME280_pressure;Samples;Min_cycle;Max_cycle;Signal;HPM_P1;HPM_P2
2022/12/13 00:01:44;;;;;;;3.92;1.30;;;;;;;;;;5004280;28;20025;-78
2022/12/13 00:04:10;;;;;;;5.38;1.15;;;;;;;;;;5003014;28;20487;-76
2022/12/13 00:06:37;;;;;;;2.28;0.80;;;;;;;;;;5004112;28;20029;-75
2022/12/13 00:09:04;;;;;;;2.88;1.13;;;;;;;;;;5003951;28;20026;-78
2022/12/13 00:11:30;;;;;;;3.17;0.80;;;;;;;;;;5004307;28;20025;-77
2022/12/13 00:13:56;;;;;;;4.03;1.00;;;;;;;;;;5003487;28;20042;-76
2022/12/13 00:16:23;;;;;;;3.28;1.08;;;;;;;;;;5002104;28;20564;-76
2022/12/13 00:18:50;;;;;;;2.08;0.82;;;;;;;;;;5004398;28;20622;-77
2022/12/13 00:21:19;;;;;;;2.75;1.13;;;;;;;;;;5003159;28;20128;-76
2022/12/13 00:23:45;;;;;;;5.97;0.90;;;;;;;;;;5003384;28;20410;-75
2022/12/13 00:26:13;;;;;;;3.58;0.80;;;;;;;;;;5004516;28;20034;-76
2022/12/13 00:28:39;;;;;;;3.80;0.80;;;;;;;;;;5002518;28;20109;-76
2022/12/13 00:31:06;;;;;;;1.08;0.60;;;;;;;;;;4995736;28;20026;-75
2022/12/13 00:33:32;;;;;;;1.95;0.90;;;;;;;;;;5004654;28;20020;-75
2022/12/13 00:35:58;;;;;;;4.07;1.20;;;;;;;;;;5003312;28;20053;-75
2022/12/13 00:38:25;;;;;;;4.05;1.20;;;;;;;;;;5004460;28;20025;-77
2022/12/13 00:40:51;;;;;;;2.83;1.23;;;;;;;;;;5002234;28;20036;-75
2022/12/13 00:43:17;;;;;;;3.38;1.00;;;;;;;;;;5002681;28;20021;-75
2022/12/13 00:45:44;;;;;;;2.20;0.80;;;;;;;;;;5003559;28;20021;-76
2022/12/13 00:48:10;;;;;;;3.33;1.10;;;;;;;;;;5004134;28;20026;-76
2022/12/13 00:50:37;;;;;;;4.32;1.10;;;;;;;;;;5002182;28;20083;-75
2022/12/13 00:53:04;;;;;;;2.88;0.80;;;;;;;;;;5002055;28;20030;-75
2022/12/13 00:55:30;;;;;;;1.42;0.77;;;;;;;;;;5004517;28;20036;-76
2022/12/13 00:57:56;;;;;;;2.10;1.15;;;;;;;;;;5003777;28;20022;-75
2022/12/13 01:00:24;;;;;;;0.90;0.60;;;;;;;;;;5003816;28;20052;-75
2022/12/13 01:02:50;;;;;;;3.40;1.00;;;;;;;;;;5002273;28;20052;-75
2022/12/13 01:05:16;;;;;;;3.30;0.82;;;;;;;;;;5002668;28;20034;-76
2022/12/13 01:07:43;;;;;;;2.13;1.08;;;;;;;;;;5003437;28;20017;-76
2022/12/13 01:10:11;;;;;;;3.78;0.82;;;;;;;;;;5002134;28;20386;-76
2022/12/13 01:12:38;;;;;;;2.88;0.90;;;;;;;;;;5001978;28;20084;-76
2022/12/13 01:15:05;;;;;;;4.65;0.90;;;;;;;;;;5003192;28;20034;-75
2022/12/13 01:17:31;;;;;;;2.65;1.08;;;;;;;;;;5003352;28;20026;-76
2022/12/13 01:19:57;;;;;;;2.05;0.70;;;;;;;;;;5002395;28;20422;-75
2022/12/13 01:22:24;;;;;;;3.80;1.08;;;;;;;;;;5002007;28;20025;-75
2022/12/13 01:24:50;;;;;;;5.20;1.23;;;;;;;;;;5007078;28;20057;-76
2022/12/13 01:27:16;;;;;;;5.50;1.25;;;;;;;;;;5008373;28;20116;-76
2022/12/13 01:29:42;;;;;;;2.60;1.10;;;;;;;;;;5008005;28;20018;-75
2022/12/13 01:32:10;;;;;;;1.88;1.05;;;;;;;;;;5007856;28;20069;-76
2022/12/13 01:34:36;;;;;;;2.38;1.80;;;;;;;;;;5006057;28;20041;-75
2022/12/13 01:37:02;;;;;;;2.60;1.20;;;;;;;;;;5007412;28;20022;-78
2022/12/13 01:39:28;;;;;;;2.25;0.82;;;;;;;;;;5007454;28;20029;-76
2022/12/13 01:41:58;;;;;;;1.48;1.00;;;;;;;;;;5008043;28;20466;-76
2022/12/13 01:44:43;;;;;;;1.83;0.95;;;;;;;;;;5005949;28;20022;-75
2022/12/13 01:47:09;;;;;;;4.35;1.20;;;;;;;;;;5006524;28;20026;-76
2022/12/13 01:49:35;;;;;;;1.10;0.80;;;;;;;;;;5009841;28;20091;-76
2022/12/13 01:52:04;;;;;;;2.15;1.00;;;;;;;;;;5009725;28;20026;-79
2022/12/13 01:54:34;;;;;;;5.28;1.23;;;;;;;;;;5009244;28;20695;-76
2022/12/13 01:57:01;;;;;;;3.63;1.33;;;;;;;;;;5007068;28;20482;-75
2022/12/13 01:59:28;;;;;;;1.67;1.10;;;;;;;;;;5009604;28;20064;-76
2022/12/13 02:01:54;;;;;;;3.17;1.17;;;;;;;;;;5008269;28;20049;-76
2022/12/13 02:04:25;;;;;;;2.00;1.08;;;;;;;;;;5006187;28;20087;-76
2022/12/13 02:06:52;;;;;;;1.60;1.08;;;;;;;;;;5004253;28;20028;-76
2022/12/13 02:09:18;;;;;;;4.40;0.90;;;;;;;;;;5000140;28;20053;-76
2022/12/13 02:11:45;;;;;;;5.13;0.80;;;;;;;;;;5006381;28;20385;-76
2022/12/13 02:14:11;;;;;;;2.05;0.70;;;;;;;;;;5006714;28;20112;-76
2022/12/13 02:16:59;;;;;;;2.95;0.85;;;;;;;;;;5007102;28;20033;-76
2022/12/13 02:19:48;;;;;;;2.88;1.35;;;;;;;;;;5005979;28;20084;-76
2022/12/13 02:22:39;;;;;;;2.88;0.85;;;;;;;;;;5006514;28;20030;-76
2022/12/13 02:25:11;;;;;;;2.15;0.93;;;;;;;;;;5004866;28;20045;-75
2022/12/13 02:27:37;;;;;;;;;;;;;;;;;;5007467;28;20080;-76
2022/12/13 02:30:14;;;;;;;1.27;0.88;;;;;;;;;;5006845;28;19948;-76
2022/12/13 02:32:59;;;;;;;3.30;1.10;;;;;;;;;;5004237;28;20052;-77
2022/12/13 02:35:33;;;;;;;2.35;1.10;;;;;;;;;;5003997;28;20034;-75
2022/12/13 02:38:08;;;;;;;3.10;1.20;;;;;;;;;;5004874;28;20029;-76
2022/12/13 02:40:38;;;;;;;4.07;1.30;;;;;;;;;;5005683;28;20517;-76
2022/12/13 02:43:06;;;;;;;2.10;1.27;;;;;;;;;;5005005;28;20033;-75
2022/12/13 02:45:35;;;;;;;2.30;1.00;;;;;;;;;;5004327;28;20018;-76
2022/12/13 02:48:03;;;;;;;4.43;1.30;;;;;;;;;;5006374;28;20576;-78
2022/12/13 02:50:30;;;;;;;3.28;1.00;;;;;;;;;;5006645;28;20058;-79
2022/12/13 02:52:58;;;;;;;3.13;0.90;;;;;;;;;;5006457;28;20076;-75
2022/12/13 02:55:24;;;;;;;1.95;0.80;;;;;;;;;;5005659;28;20029;-76
2022/12/13 02:57:51;;;;;;;1.80;0.85;;;;;;;;;;5004249;28;20544;-76
2022/12/13 03:00:17;;;;;;;2.47;0.85;;;;;;;;;;5006160;28;20112;-76
2022/12/13 03:03:01;;;;;;;3.72;0.95;;;;;;;;;;5006316;28;20244;-75
2022/12/13 03:08:21;;;;;;;2.85;0.88;;;;;;;;;;5003556;28;20045;-77
2022/12/13 03:11:07;;;;;;;1.63;1.08;;;;;;;;;;5005222;28;20057;-75
2022/12/13 03:13:46;;;;;;;4.13;1.13;;;;;;;;;;4999099;28;20885;-75
2022/12/13 03:16:21;;;;;;;4.57;0.82;;;;;;;;;;4997690;28;20030;-76
2022/12/13 03:18:48;;;;;;;1.50;0.95;;;;;;;;;;5004814;28;20083;-76
2022/12/13 03:21:14;;;;;;;4.28;0.90;;;;;;;;;;5005785;28;20018;-76
2022/12/13 03:23:40;;;;;;;4.15;0.98;;;;;;;;;;5005542;28;20528;-76
2022/12/13 03:26:12;;;;;;;5.03;0.80;;;;;;;;;;5005345;28;20052;-77
2022/12/13 03:28:38;;;;;;;7.30;1.45;;;;;;;;;;5000009;28;20049;-79
2022/12/13 03:31:04;;;;;;;2.95;1.17;;;;;;;;;;5003709;28;20118;-80
2022/12/13 03:33:30;;;;;;;3.88;0.85;;;;;;;;;;5000891;28;20022;-76
2022/12/13 03:35:57;;;;;;;2.58;0.80;;;;;;;;;;5006188;28;20033;-75
2022/12/13 03:38:23;;;;;;;2.58;0.93;;;;;;;;;;5004215;28;20026;-77
2022/12/13 03:40:50;;;;;;;6.65;0.80;;;;;;;;;;5004424;28;20475;-77
2022/12/13 03:43:17;;;;;;;2.40;0.73;;;;;;;;;;5003985;28;20064;-79
2022/12/13 03:45:43;;;;;;;4.30;0.98;;;;;;;;;;5004601;28;20022;-76
2022/12/13 03:48:09;;;;;;;1.73;0.90;;;;;;;;;;5004444;28;20458;-76
2022/12/13 03:50:35;;;;;;;2.53;1.13;;;;;;;;;;5005474;28;20500;-76
2022/12/13 03:53:02;;;;;;;2.85;0.90;;;;;;;;;;5004155;28;20505;-79
2022/12/13 03:55:29;;;;;;;1.80;0.95;;;;;;;;;;5005310;28;20045;-75
2022/12/13 03:57:55;;;;;;;6.70;1.00;;;;;;;;;;5003503;28;20026;-75
2022/12/13 04:00:22;;;;;;;3.67;1.10;;;;;;;;;;5004642;28;20030;-76
2022/12/13 04:02:48;;;;;;;2.55;0.80;;;;;;;;;;5003842;28;20501;-78
2022/12/13 04:05:14;;;;;;;3.70;1.00;;;;;;;;;;5005267;28;20025;-75
2022/12/13 04:07:40;;;;;;;3.40;1.35;;;;;;;;;;5004704;28;20096;-75
2022/12/13 04:10:07;;;;;;;3.20;1.00;;;;;;;;;;5004595;28;20042;-76
2022/12/13 04:15:18;;;;;;;4.80;1.08;;;;;;;;;;5004585;28;20089;-76
2022/12/13 04:17:44;;;;;;;1.75;1.00;;;;;;;;;;5001836;28;20018;-76
2022/12/13 04:20:10;;;;;;;3.67;0.98;;;;;;;;;;5002992;28;20034;-77
2022/12/13 04:22:36;;;;;;;3.20;1.20;;;;;;;;;;5002701;28;20018;-76
2022/12/13 04:25:03;;;;;;;2.60;0.73;;;;;;;;;;5000476;28;20520;-76
2022/12/13 04:27:30;;;;;;;2.05;1.10;;;;;;;;;;5002471;28;20032;-75
2022/12/13 04:29:56;;;;;;;4.40;1.30;;;;;;;;;;5002358;28;20028;-75
2022/12/13 04:32:22;;;;;;;4.75;1.50;;;;;;;;;;5000985;28;20018;-76
2022/12/13 04:34:48;;;;;;;2.25;1.40;;;;;;;;;;4999351;28;20029;-77
2022/12/13 04:37:14;;;;;;;5.63;2.17;;;;;;;;;;5000622;28;20014;-77
2022/12/13 04:39:41;;;;;;;5.15;1.48;;;;;;;;;;4999215;28;20029;-78
2022/12/13 04:42:07;;;;;;;2.53;1.42;;;;;;;;;;5000992;28;20521;-75
2022/12/13 04:44:33;;;;;;;2.63;1.70;;;;;;;;;;5002298;28;20544;-76
2022/12/13 04:47:01;;;;;;;3.65;1.42;;;;;;;;;;5000500;28;20648;-80
2022/12/13 04:49:27;;;;;;;5.32;1.65;;;;;;;;;;5000860;28;20042;-76
2022/12/13 04:51:53;;;;;;;5.60;1.63;;;;;;;;;;5002401;28;20022;-77
2022/12/13 04:54:20;;;;;;;4.28;1.27;;;;;;;;;;5001418;28;20052;-75
2022/12/13 04:56:46;;;;;;;2.92;1.30;;;;;;;;;;5002116;28;20049;-75
2022/12/13 04:59:12;;;;;;;6.07;1.35;;;;;;;;;;5000147;28;20025;-80
2022/12/13 05:01:39;;;;;;;2.53;0.93;;;;;;;;;;5001978;28;20071;-76
2022/12/13 05:04:05;;;;;;;1.08;0.85;;;;;;;;;;5001495;28;20496;-75
2022/12/13 05:06:31;;;;;;;2.03;0.60;;;;;;;;;;5001292;28;20368;-76
2022/12/13 05:08:57;;;;;;;3.33;1.02;;;;;;;;;;5001105;28;20021;-79
2022/12/13 05:11:23;;;;;;;1.73;1.05;;;;;;;;;;5001520;28;20029;-79
2022/12/13 05:13:50;;;;;;;3.25;1.30;;;;;;;;;;5002225;28;20033;-75
2022/12/13 05:16:16;;;;;;;2.58;1.00;;;;;;;;;;5001602;28;20069;-76
2022/12/13 05:18:42;;;;;;;2.13;1.13;;;;;;;;;;5000010;28;20109;-76
2022/12/13 05:21:09;;;;;;;2.08;1.15;;;;;;;;;;5001691;28;20088;-80
2022/12/13 05:23:35;;;;;;;3.05;0.88;;;;;;;;;;5001696;28;20424;-76
2022/12/13 05:26:02;;;;;;;2.55;1.20;;;;;;;;;;5000965;28;20053;-75
2022/12/13 05:28:28;;;;;;;1.48;1.13;;;;;;;;;;5001096;28;20022;-75
2022/12/13 05:30:56;;;;;;;2.15;1.40;;;;;;;;;;5001231;28;20014;-75
2022/12/13 05:33:23;;;;;;;2.80;1.52;;;;;;;;;;5001108;28;20026;-76
2022/12/13 05:35:49;;;;;;;2.65;1.40;;;;;;;;;;5001498;28;20116;-78
2022/12/13 05:38:15;;;;;;;2.33;1.52;;;;;;;;;;5000048;28;20033;-77
2022/12/13 05:40:42;;;;;;;2.92;1.75;;;;;;;;;;5001576;28;20022;-77
2022/12/13 05:43:10;;;;;;;5.10;2.25;;;;;;;;;;5000267;28;20072;-78
2022/12/13 05:45:36;;;;;;;4.13;2.30;;;;;;;;;;5001410;28;20178;-77
2022/12/13 05:48:02;;;;;;;7.00;2.10;;;;;;;;;;5000538;28;20095;-77
2022/12/13 05:50:29;;;;;;;6.80;2.00;;;;;;;;;;5001290;28;20084;-79
2022/12/13 05:52:55;;;;;;;8.00;2.10;;;;;;;;;;5001539;28;20021;-81
2022/12/13 05:55:21;;;;;;;3.40;1.80;;;;;;;;;;5001353;28;20095;-79
2022/12/13 05:57:47;;;;;;;5.43;2.25;;;;;;;;;;4999550;28;20100;-80
2022/12/13 06:00:14;;;;;;;4.25;1.85;;;;;;;;;;5000162;28;20414;-80
2022/12/13 06:02:42;;;;;;;4.97;1.85;;;;;;;;;;5000884;28;20050;-78
2022/12/13 06:05:11;;;;;;;2.78;1.83;;;;;;;;;;5001286;28;20092;-80
2022/12/13 06:07:37;;;;;;;3.95;1.70;;;;;;;;;;5001166;28;20097;-79
2022/12/13 06:10:04;;;;;;;5.85;1.95;;;;;;;;;;5002795;28;20021;-77
2022/12/13 06:12:31;;;;;;;4.45;1.55;;;;;;;;;;5004786;28;20026;-75
2022/12/13 06:14:57;;;;;;;4.15;1.63;;;;;;;;;;4997508;28;20034;-76
2022/12/13 06:17:24;;;;;;;1.67;1.38;;;;;;;;;;5004405;28;20026;-77
2022/12/13 06:19:50;;;;;;;3.83;1.80;;;;;;;;;;5004640;28;20022;-75
2022/12/13 06:22:17;;;;;;;3.08;1.40;;;;;;;;;;5003058;28;20026;-78
2022/12/13 06:24:43;;;;;;;4.88;1.85;;;;;;;;;;5004000;28;20121;-80
2022/12/13 06:27:09;;;;;;;6.53;1.90;;;;;;;;;;5004457;28;20075;-76
2022/12/13 06:29:35;;;;;;;5.40;2.10;;;;;;;;;;5004188;28;20029;-81
2022/12/13 06:32:02;;;;;;;4.13;1.70;;;;;;;;;;5002328;28;20037;-79
2022/12/13 06:34:29;;;;;;;5.18;1.85;;;;;;;;;;5004591;28;20044;-76
2022/12/13 06:36:56;;;;;;;6.28;1.63;;;;;;;;;;4999838;28;20045;-77
2022/12/13 06:39:22;;;;;;;6.72;2.28;;;;;;;;;;5004839;28;20112;-77
2022/12/13 06:41:48;;;;;;;3.58;1.92;;;;;;;;;;5004256;28;20715;-77
2022/12/13 06:44:14;;;;;;;5.85;2.00;;;;;;;;;;5002638;28;20037;-77
2022/12/13 06:46:41;;;;;;;4.15;1.85;;;;;;;;;;5003985;28;20033;-76
2022/12/13 06:49:07;;;;;;;5.63;1.77;;;;;;;;;;5004000;28;20021;-76
2022/12/13 06:51:34;;;;;;;4.72;1.85;;;;;;;;;;5004072;28;20025;-76
2022/12/13 06:54:01;;;;;;;4.32;1.48;;;;;;;;;;5004223;28;20110;-76
2022/12/13 06:56:27;;;;;;;3.83;1.40;;;;;;;;;;5004462;28;20034;-74
2022/12/13 06:58:53;;;;;;;5.10;1.63;;;;;;;;;;5002430;28;20034;-75
2022/12/13 07:01:20;;;;;;;3.78;1.38;;;;;;;;;;5004405;28;20042;-75
2022/12/13 07:03:46;;;;;;;5.88;1.40;;;;;;;;;;5003783;28;20018;-74
2022/12/13 07:06:13;;;;;;;4.28;1.17;;;;;;;;;;5003783;28;20022;-74
2022/12/13 07:08:40;;;;;;;3.33;1.20;;;;;;;;;;5002500;28;20026;-74
2022/12/13 07:11:06;;;;;;;4.10;1.48;;;;;;;;;;5002324;28;20030;-75
2022/12/13 07:13:33;;;;;;;3.35;1.13;;;;;;;;;;5003357;28;20437;-74
2022/12/13 07:15:59;;;;;;;7.65;1.40;;;;;;;;;;5003019;28;20121;-75
2022/12/13 07:18:26;;;;;;;2.92;1.38;;;;;;;;;;5001933;28;20032;-74
2022/12/13 07:20:52;;;;;;;3.58;1.20;;;;;;;;;;5002833;28;20029;-74
2022/12/13 07:23:18;;;;;;;8.32;1.67;;;;;;;;;;5003683;28;20021;-74
2022/12/13 07:25:52;;;;;;;2.50;1.42;;;;;;;;;;5003207;28;20046;-73
2022/12/13 07:28:18;;;;;;;8.40;2.10;;;;;;;;;;5002097;28;20018;-74
2022/12/13 07:30:45;;;;;;;11.95;2.63;;;;;;;;;;5003184;28;20233;-74
2022/12/13 07:33:12;;;;;;;7.25;2.25;;;;;;;;;;5003278;28;20029;-73
2022/12/13 07:35:38;;;;;;;6.93;2.30;;;;;;;;;;5001772;28;20053;-77
2022/12/13 07:38:05;;;;;;;6.63;2.10;;;;;;;;;;4994997;28;20109;-77
2022/12/13 07:40:33;;;;;;;8.32;2.08;;;;;;;;;;5000243;28;20040;-75
2022/12/13 07:43:00;;;;;;;6.57;2.05;;;;;;;;;;5003183;28;20026;-77
2022/12/13 07:45:26;;;;;;;5.93;2.20;;;;;;;;;;5004065;28;20022;-74
2022/12/13 07:47:52;;;;;;;5.95;2.28;;;;;;;;;;5001934;28;20083;-75
2022/12/13 07:50:22;;;;;;;6.53;2.08;;;;;;;;;;5003501;28;20021;-76
2022/12/13 07:52:48;;;;;;;5.90;2.30;;;;;;;;;;5003032;28;20014;-74
2022/12/13 07:55:16;;;;;;;10.45;2.15;;;;;;;;;;5001617;28;20034;-76
2022/12/13 07:57:42;;;;;;;9.30;2.60;;;;;;;;;;5000873;28;20022;-74
2022/12/13 08:00:09;;;;;;;7.22;2.47;;;;;;;;;;5001606;28;20025;-75
2022/12/13 08:02:35;;;;;;;12.50;3.05;;;;;;;;;;5000068;28;20079;-74
2022/12/13 08:05:01;;;;;;;10.32;3.50;;;;;;;;;;5001090;28;20038;-73
2022/12/13 08:07:27;;;;;;;7.68;2.50;;;;;;;;;;5001027;28;20079;-75
2022/12/13 08:09:54;;;;;;;5.55;2.30;;;;;;;;;;5002104;28;20025;-74
2022/12/13 08:12:20;;;;;;;12.48;2.38;;;;;;;;;;5002351;28;20076;-73
2022/12/13 08:14:47;;;;;;;6.15;2.50;;;;;;;;;;5002455;28;20587;-76
2022/12/13 08:17:13;;;;;;;7.60;2.10;;;;;;;;;;5002320;28;20021;-74
2022/12/13 08:19:39;;;;;;;7.20;2.78;;;;;;;;;;5002692;28;20103;-77
2022/12/13 08:22:05;;;;;;;9.40;2.55;;;;;;;;;;4999670;28;20053;-75
2022/12/13 08:24:32;;;;;;;8.93;2.72;;;;;;;;;;5002142;28;20398;-77
2022/12/13 08:27:02;;;;;;;7.53;2.80;;;;;;;;;;5002048;28;20014;-73
2022/12/13 08:29:33;;;;;;;6.03;2.55;;;;;;;;;;5000670;28;20026;-76
2022/12/13 08:31:59;;;;;;;6.57;2.38;;;;;;;;;;5000736;28;20051;-75
2022/12/13 08:34:26;;;;;;;9.30;2.63;;;;;;;;;;5002429;28;20099;-77
2022/12/13 08:36:52;;;;;;;5.72;2.83;;;;;;;;;;5001931;28;20093;-74
2022/12/13 08:39:18;;;;;;;7.95;2.80;;;;;;;;;;4999855;28;20051;-72
2022/12/13 08:41:44;;;;;;;10.63;3.00;;;;;;;;;;4993057;28;20034;-74
2022/12/13 08:44:11;;;;;;;11.23;3.03;;;;;;;;;;4996505;28;20040;-74
2022/12/13 08:46:37;;;;;;;12.23;3.45;;;;;;;;;;4996473;28;20032;-72
2022/12/13 08:49:03;;;;;;;9.35;3.55;;;;;;;;;;4999988;28;20447;-71
2022/12/13 08:51:29;;;;;;;8.98;2.55;;;;;;;;;;4996534;28;20480;-72
2022/12/13 08:53:55;;;;;;;6.28;2.45;;;;;;;;;;5000849;28;20068;-71
2022/12/13 08:56:22;;;;;;;7.80;2.63;;;;;;;;;;5000915;28;20034;-71
2022/12/13 08:58:51;;;;;;;8.00;3.03;;;;;;;;;;5000986;28;20020;-71
2022/12/13 09:01:17;;;;;;;10.32;2.90;;;;;;;;;;4999593;28;20025;-72
2022/12/13 09:03:43;;;;;;;6.40;2.83;;;;;;;;;;5001348;28;20051;-72
2022/12/13 09:06:11;;;;;;;8.48;2.67;;;;;;;;;;5000547;28;20046;-72
2022/12/13 09:08:38;;;;;;;10.75;3.20;;;;;;;;;;4997182;28;20434;-72
2022/12/13 09:11:04;;;;;;;13.05;4.00;;;;;;;;;;4993487;28;20030;-72
2022/12/13 09:13:31;;;;;;;9.85;3.10;;;;;;;;;;4999466;28;20033;-72
2022/12/13 09:15:58;;;;;;;9.40;2.90;;;;;;;;;;5000212;28;20048;-72
2022/12/13 09:18:24;;;;;;;11.38;3.53;;;;;;;;;;4997048;28;20022;-72
2022/12/13 09:20:51;;;;;;;10.55;2.70;;;;;;;;;;4999560;28;20042;-72
2022/12/13 09:23:17;;;;;;;15.35;3.00;;;;;;;;;;4998753;28;20030;-72
2022/12/13 09:25:43;;;;;;;8.88;2.50;;;;;;;;;;5000682;28;20040;-72
2022/12/13 09:28:09;;;;;;;11.98;3.15;;;;;;;;;;4998481;28;20564;-72
2022/12/13 09:30:36;;;;;;;8.05;3.03;;;;;;;;;;4999993;28;20467;-72
2022/12/13 09:33:02;;;;;;;8.48;3.13;;;;;;;;;;5000586;28;20132;-72
2022/12/13 09:35:29;;;;;;;13.75;3.17;;;;;;;;;;4999494;28;20049;-72
2022/12/13 09:37:55;;;;;;;9.23;2.75;;;;;;;;;;4998873;28;20018;-72
2022/12/13 09:40:27;;;;;;;8.82;2.33;;;;;;;;;;4989606;28;20022;-73
2022/12/13 09:42:54;;;;;;;9.95;2.80;;;;;;;;;;5000399;28;20117;-71
2022/12/13 09:45:21;;;;;;;9.40;2.90;;;;;;;;;;4999339;28;20885;-72
2022/12/13 09:47:48;;;;;;;9.10;2.72;;;;;;;;;;5003595;28;20030;-72
2022/12/13 09:50:25;;;;;;;10.50;2.63;;;;;;;;;;5004581;28;20026;-72
2022/12/13 09:52:51;;;;;;;11.18;3.65;;;;;;;;;;4999501;28;20052;-72
2022/12/13 09:55:22;;;;;;;13.07;3.65;;;;;;;;;;5003666;28;20037;-71
2022/12/13 09:57:49;;;;;;;12.00;2.88;;;;;;;;;;5003954;28;20014;-71
2022/12/13 10:00:17;;;;;;;11.23;3.47;;;;;;;;;;5003475;28;20110;-72
2022/12/13 10:02:45;;;;;;;9.18;2.80;;;;;;;;;;5000137;28;20069;-72
2022/12/13 10:05:11;;;;;;;14.57;3.22;;;;;;;;;;5003153;28;20113;-72
2022/12/13 10:07:39;;;;;;;8.20;3.00;;;;;;;;;;5003806;28;20022;-72
2022/12/13 10:10:05;;;;;;;11.65;2.72;;;;;;;;;;4998661;28;20417;-72
2022/12/13 10:12:32;;;;;;;11.50;3.33;;;;;;;;;;5002463;28;20026;-71
2022/12/13 10:15:00;;;;;;;12.13;3.00;;;;;;;;;;5002074;28;20060;-72
2022/12/13 10:17:28;;;;;;;8.27;3.15;;;;;;;;;;4996644;28;20349;-72
2022/12/13 10:19:54;;;;;;;12.88;3.08;;;;;;;;;;5002800;28;20026;-72
2022/12/13 10:22:24;;;;;;;10.32;2.63;;;;;;;;;;5002064;28;20022;-71
2022/12/13 10:24:53;;;;;;;11.25;3.08;;;;;;;;;;5002093;28;20061;-72
2022/12/13 10:27:25;;;;;;;11.65;2.85;;;;;;;;;;4997167;28;20841;-72
2022/12/13 10:30:12;;;;;;;12.02;3.05;;;;;;;;;;5003208;28;20033;-71
2022/12/13 10:32:56;;;;;;;12.63;3.08;;;;;;;;;;5003740;28;20538;-72
2022/12/13 10:35:33;;;;;;;9.38;2.50;;;;;;;;;;5002311;28;20069;-72
2022/12/13 10:38:19;;;;;;;10.80;2.95;;;;;;;;;;5003406;28;20068;-72
2022/12/13 10:40:47;;;;;;;11.52;2.58;;;;;;;;;;5001964;28;20038;-72
2022/12/13 10:43:15;;;;;;;11.20;2.95;;;;;;;;;;5001998;28;20554;-71
2022/12/13 10:45:43;;;;;;;14.05;2.90;;;;;;;;;;5003546;28;20387;-72
2022/12/13 10:48:22;;;;;;;13.82;3.38;;;;;;;;;;5003507;28;20036;-71
2022/12/13 10:51:00;;;;;;;9.63;2.67;;;;;;;;;;5003709;28;20042;-72
2022/12/13 10:53:30;;;;;;;14.27;3.55;;;;;;;;;;4993951;28;20036;-72
2022/12/13 10:55:57;;;;;;;13.15;3.25;;;;;;;;;;5002415;28;20069;-72
2022/12/13 10:58:33;;;;;;;20.98;3.25;;;;;;;;;;5003093;28;20032;-72
2022/12/13 11:01:08;;;;;;;9.30;3.53;;;;;;;;;;5003220;28;20022;-72
2022/12/13 11:03:34;;;;;;;10.30;2.80;;;;;;;;;;4996114;28;20503;-72
2022/12/13 11:06:05;;;;;;;12.95;3.42;;;;;;;;;;5002273;28;20065;-72
2022/12/13 11:08:31;;;;;;;12.95;3.45;;;;;;;;;;5002682;28;20091;-72
2022/12/13 11:10:59;;;;;;;15.90;3.05;;;;;;;;;;5003379;28;20045;-72
2022/12/13 11:13:30;;;;;;;18.55;3.67;;;;;;;;;;5003319;28;20030;-72
2022/12/13 11:15:56;;;;;;;15.88;4.05;;;;;;;;;;5001243;28;20033;-73
2022/12/13 11:18:24;;;;;;;21.95;4.47;;;;;;;;;;5002687;28;20030;-72
2022/12/13 11:20:56;;;;;;;17.20;3.22;;;;;;;;;;5003312;28;20022;-72
2022/12/13 11:23:27;;;;;;;23.27;4.43;;;;;;;;;;5002586;28;20442;-72
2022/12/13 11:25:57;;;;;;;18.50;3.83;;;;;;;;;;5003279;28;20400;-72
2022/12/13 11:28:42;;;;;;;19.90;4.65;;;;;;;;;;5001372;28;20022;-72
2022/12/13 11:31:20;;;;;;;15.13;4.22;;;;;;;;;;5002667;28;20096;-72
2022/12/13 11:34:04;;;;;;;18.55;5.18;;;;;;;;;;5002854;28;20013;-73
2022/12/13 11:36:33;;;;;;;23.15;4.88;;;;;;;;;;5001164;28;20073;-71
2022/12/13 11:39:12;;;;;;;25.98;5.75;;;;;;;;;;5002618;28;20104;-72
2022/12/13 11:41:41;;;;;;;16.80;3.90;;;;;;;;;;4995228;28;20109;-72
2022/12/13 11:44:37;;;;;;;21.40;4.72;;;;;;;;;;5002552;28;20410;-72
2022/12/13 11:47:05;;;;;;;19.35;4.55;;;;;;;;;;4949489;28;20122;-71
2022/12/13 11:49:41;;;;;;;23.45;5.25;;;;;;;;;;5000817;28;20029;-71
2022/12/13 11:52:13;;;;;;;23.40;5.50;;;;;;;;;;5002603;28;20069;-72
2022/12/13 11:54:56;;;;;;;17.30;4.00;;;;;;;;;;5002491;28;20036;-74
2022/12/13 11:57:42;;;;;;;22.88;4.57;;;;;;;;;;5001943;28;20022;-72
2022/12/13 12:00:27;;;;;;;24.73;4.65;;;;;;;;;;4973929;28;20072;-72
2022/12/13 12:02:56;;;;;;;23.05;5.03;;;;;;;;;;5000931;28;20494;-72
2022/12/13 12:05:28;;;;;;;18.23;4.75;;;;;;;;;;5002309;28;20022;-73
2022/12/13 12:07:56;;;;;;;16.52;3.63;;;;;;;;;;5001685;28;20542;-72
2022/12/13 12:10:31;;;;;;;20.33;3.97;;;;;;;;;;5001722;28;20692;-72
2022/12/13 12:13:04;;;;;;;20.88;3.75;;;;;;;;;;5002029;28;20398;-72
2022/12/13 12:15:32;;;;;;;17.98;3.58;;;;;;;;;;5001988;28;20689;-72
2022/12/13 12:17:58;;;;;;;23.45;3.92;;;;;;;;;;5001413;28;20030;-72
2022/12/13 12:20:44;;;;;;;23.98;5.68;;;;;;;;;;5000478;28;20029;-72
2022/12/13 12:23:13;;;;;;;21.35;3.88;;;;;;;;;;5000961;28;20026;-72
2022/12/13 12:26:18;;;;;;;15.60;4.20;;;;;;;;;;5001144;28;20050;-72
2022/12/13 12:28:47;;;;;;;14.52;3.65;;;;;;;;;;4924939;29;20035;-72
2022/12/13 12:31:39;;;;;;;16.85;4.25;;;;;;;;;;4925238;29;20028;-72
2022/12/13 12:34:11;;;;;;;16.20;4.30;;;;;;;;;;4968042;28;20034;-72
2022/12/13 12:36:56;;;;;;;17.27;4.50;;;;;;;;;;5002072;28;20030;-72
2022/12/13 12:39:22;;;;;;;14.50;3.50;;;;;;;;;;4998301;28;20029;-72
2022/12/13 12:42:07;;;;;;;15.63;4.07;;;;;;;;;;5001452;28;20530;-72
2022/12/13 12:44:36;;;;;;;15.52;3.22;;;;;;;;;;4999223;28;20026;-72
2022/12/13 12:47:22;;;;;;;18.08;3.90;;;;;;;;;;4999392;28;20585;-73
2022/12/13 12:50:00;;;;;;;18.33;4.95;;;;;;;;;;4999844;28;20021;-72
2022/12/13 12:52:51;;;;;;;17.10;3.83;;;;;;;;;;5000575;28;20423;-73
2022/12/13 12:55:37;;;;;;;18.35;4.47;;;;;;;;;;5001546;28;20125;-72
2022/12/13 12:58:03;;;;;;;16.85;3.58;;;;;;;;;;4999275;28;20570;-72
2022/12/13 13:00:33;;;;;;;16.60;4.10;;;;;;;;;;4997482;28;20021;-72
2022/12/13 13:02:59;;;;;;;15.98;3.95;;;;;;;;;;5000036;28;20055;-72
2022/12/13 13:05:33;;;;;;;14.38;3.67;;;;;;;;;;5000529;28;20502;-72
2022/12/13 13:08:02;;;;;;;12.93;3.65;;;;;;;;;;4996551;28;20041;-72
2022/12/13 13:10:29;;;;;;;29.00;5.03;;;;;;;;;;4997532;28;20430;-71
2022/12/13 13:12:55;;;;;;;16.23;4.47;;;;;;;;;;5008714;28;20521;-71
2022/12/13 13:15:30;;;;;;;15.93;3.85;;;;;;;;;;5000110;28;20129;-79
2022/12/13 13:17:57;;;;;;;23.15;4.75;;;;;;;;;;4998339;28;20033;-71
2022/12/13 13:20:24;;;;;;;16.60;4.10;;;;;;;;;;4999197;28;20083;-74
2022/12/13 13:22:55;;;;;;;20.13;4.28;;;;;;;;;;5000756;28;20018;-73
2022/12/13 13:25:34;;;;;;;22.88;4.25;;;;;;;;;;4997321;28;20112;-73
2022/12/13 13:28:02;;;;;;;20.67;4.07;;;;;;;;;;4998253;28;20030;-72
2022/12/13 13:30:29;;;;;;;18.63;4.57;;;;;;;;;;5000522;28;20079;-71
2022/12/13 13:32:57;;;;;;;19.48;4.07;;;;;;;;;;5000069;28;20351;-70
2022/12/13 13:35:32;;;;;;;13.95;4.13;;;;;;;;;;5000514;28;20038;-70
2022/12/13 13:38:03;;;;;;;17.75;4.10;;;;;;;;;;4996128;28;20029;-70
2022/12/13 13:40:36;;;;;;;13.80;3.22;;;;;;;;;;4997825;28;20401;-70
2022/12/13 13:43:02;;;;;;;23.05;5.20;;;;;;;;;;4999670;28;20026;-70
2022/12/13 13:45:28;;;;;;;28.08;5.18;;;;;;;;;;5000085;28;20049;-70
2022/12/13 13:47:59;;;;;;;18.73;3.97;;;;;;;;;;5000076;28;20042;-70
2022/12/13 13:50:48;;;;;;;23.00;4.50;;;;;;;;;;4998979;28;20026;-70
2022/12/13 13:53:40;;;;;;;18.77;4.25;;;;;;;;;;4992073;28;20044;-70
2022/12/13 13:56:09;;;;;;;16.95;3.88;;;;;;;;;;4998928;28;20026;-70
2022/12/13 13:58:52;;;;;;;19.83;4.20;;;;;;;;;;4999294;28;20026;-71
2022/12/13 14:01:18;;;;;;;15.98;4.32;;;;;;;;;;4993318;28;20109;-70
2022/12/13 14:04:03;;;;;;;18.38;4.35;;;;;;;;;;5000354;28;20146;-70
2022/12/13 14:06:40;;;;;;;18.83;4.13;;;;;;;;;;4997404;28;20478;-71
2022/12/13 14:09:25;;;;;;;24.98;5.53;;;;;;;;;;4999858;28;20022;-70
2022/12/13 14:11:51;;;;;;;27.33;4.45;;;;;;;;;;4997281;28;20121;-70
2022/12/13 14:14:32;;;;;;;17.92;4.60;;;;;;;;;;4997617;28;20088;-70
2022/12/13 14:17:14;;;;;;;25.05;5.93;;;;;;;;;;4998796;28;20772;-70
2022/12/13 14:19:59;;;;;;;23.20;4.47;;;;;;;;;;4996909;28;20065;-69
2022/12/13 14:22:47;;;;;;;24.95;5.10;;;;;;;;;;4992471;28;20088;-70
2022/12/13 14:25:32;;;;;;;17.77;5.63;;;;;;;;;;4994539;28;20053;-70
2022/12/13 14:27:58;;;;;;;25.70;5.25;;;;;;;;;;5000335;28;20112;-70
2022/12/13 14:30:24;;;;;;;15.65;4.25;;;;;;;;;;4999363;28;20067;-70
2022/12/13 14:32:51;;;;;;;17.17;4.07;;;;;;;;;;5000974;28;20030;-73
2022/12/13 14:35:28;;;;;;;17.77;4.50;;;;;;;;;;5002119;28;20089;-87
2022/12/13 14:37:58;;;;;;;19.02;5.15;;;;;;;;;;5000168;28;20026;-70
2022/12/13 14:40:29;;;;;;;17.10;4.38;;;;;;;;;;5003280;28;20026;-70
2022/12/13 14:42:56;;;;;;;20.25;5.03;;;;;;;;;;5002556;28;20077;-70
2022/12/13 14:45:24;;;;;;;15.73;3.78;;;;;;;;;;5004017;28;20496;-70
2022/12/13 14:47:54;;;;;;;15.23;4.30;;;;;;;;;;4997852;28;20537;-70
2022/12/13 14:50:21;;;;;;;21.42;4.53;;;;;;;;;;5003192;28;20030;-70
2022/12/13 14:52:49;;;;;;;22.98;4.22;;;;;;;;;;5002863;28;20033;-72
2022/12/13 14:55:21;;;;;;;15.65;3.83;;;;;;;;;;5002979;28;20042;-70
2022/12/13 14:57:52;;;;;;;18.25;4.50;;;;;;;;;;5001597;28;20029;-70